Time;durP1;ratioP1;P1;durP2;ratioP2;P2;SDS_P1;SDS_P2;PMS_P1;PMS_P2;Temp;Humidity;BMP_temperature;BMP_pressure;BME280_temperature;BME280_humidity;BME280_pressure;Samples;Min_cycle;Max_cycle;Signal;HPM_P1;HPM_P2
2021/10/22 00:03:50;;;;;;;5.18;1.60;;;;;;;7.63;55.97;101127.00;7973927;28;20083;-67
2021/10/22 00:07:40;;;;;;;5.22;2.00;;;;;;;7.60;56.25;101124.50;7973617;28;20441;-67
2021/10/22 00:11:31;;;;;;;4.45;1.23;;;;;;;7.55;55.64;101129.97;7973998;28;20613;-67
2021/10/22 00:15:22;;;;;;;5.55;1.60;;;;;;;7.52;55.95;101131.88;7972742;28;20033;-67
2021/10/22 00:19:13;;;;;;;3.60;1.35;;;;;;;7.47;55.81;101125.13;7973396;28;20040;-68
2021/10/22 00:23:04;;;;;;;5.15;1.15;;;;;;;7.44;55.82;101133.13;7973018;28;20033;-67
2021/10/22 00:26:54;;;;;;;9.07;1.60;;;;;;;7.39;55.81;101147.31;7973050;28;20033;-67
2021/10/22 00:30:45;;;;;;;3.88;1.55;;;;;;;7.36;56.04;101139.63;7973196;28;20472;-67
2021/10/22 00:34:35;;;;;;;4.68;1.60;;;;;;;7.29;55.51;101130.41;7973313;28;20136;-67
2021/10/22 00:38:26;;;;;;;4.63;1.35;;;;;;;7.26;55.85;101134.00;7972944;28;20030;-67
2021/10/22 00:42:17;;;;;;;7.13;1.27;;;;;;;7.20;55.86;101131.69;7972227;28;20037;-69
2021/10/22 00:46:08;;;;;;;8.38;1.67;;;;;;;7.19;55.84;101143.06;7972231;28;20520;-67
2021/10/22 00:49:58;;;;;;;6.07;1.77;;;;;;;7.08;55.61;101131.41;7971860;28;20029;-67
2021/10/22 00:53:52;;;;;;;6.78;1.90;;;;;;;7.10;55.70;101145.25;7971850;28;20113;-67
2021/10/22 00:57:44;;;;;;;4.97;1.60;;;;;;;7.07;55.85;101140.16;7972031;28;20032;-67
2021/10/22 01:01:42;;;;;;;5.82;1.88;;;;;;;7.01;55.89;101138.69;7972134;28;20044;-68
2021/10/22 01:05:32;;;;;;;;;;;;;;;6.90;55.79;101146.19;7972263;28;20053;-67
2021/10/22 01:09:24;;;;;;;6.53;1.30;;;;;;;6.92;55.73;101144.38;7970032;28;19925;-67
2021/10/22 01:13:14;;;;;;;5.22;1.73;;;;;;;6.87;55.85;101146.34;7970848;28;20038;-67
2021/10/22 01:17:05;;;;;;;7.40;2.10;;;;;;;6.87;55.78;101147.19;7971323;28;20167;-67
2021/10/22 01:21:06;;;;;;;6.25;1.55;;;;;;;6.87;56.09;101147.19;7971850;28;20672;-67
2021/10/22 01:24:56;;;;;;;8.93;1.90;;;;;;;6.85;56.03;101140.31;7971435;28;20124;-67
2021/10/22 01:28:47;;;;;;;5.18;1.85;;;;;;;6.82;56.13;101141.31;7971105;28;20029;-68
2021/10/22 01:32:38;;;;;;;9.75;1.70;;;;;;;6.80;55.71;101139.72;7970577;28;20737;-67
2021/10/22 01:36:29;;;;;;;8.68;1.85;;;;;;;6.76;55.83;101133.75;7970459;28;20052;-68
2021/10/22 01:40:20;;;;;;;9.48;2.47;;;;;;;6.75;56.10;101134.69;7970513;28;20047;-66
2021/10/22 01:44:13;;;;;;;11.88;2.25;;;;;;;6.73;55.96;101141.72;7970721;28;20044;-68
2021/10/22 01:48:05;;;;;;;6.32;1.77;;;;;;;6.70;56.10;101141.00;7971619;28;20030;-68
2021/10/22 01:51:55;;;;;;;7.53;1.90;;;;;;;6.65;56.31;101132.53;7969762;28;20032;-67
2021/10/22 01:55:47;;;;;;;8.55;2.10;;;;;;;6.64;56.15;101136.88;7970477;28;20044;-68
2021/10/22 01:59:38;;;;;;;7.38;1.90;;;;;;;6.57;56.10;101125.91;7970624;28;20060;-67
2021/10/22 02:03:28;;;;;;;6.18;2.13;;;;;;;6.60;56.07;101132.72;7970091;28;20603;-67
2021/10/22 02:07:19;;;;;;;6.88;1.88;;;;;;;6.58;56.46;101124.13;7969761;28;20033;-67
2021/10/22 02:11:10;;;;;;;6.35;1.45;;;;;;;6.54;56.10;101114.75;7969934;28;20090;-67
2021/10/22 02:15:00;;;;;;;5.53;1.77;;;;;;;6.56;56.07;101121.59;7970226;28;20038;-67
2021/10/22 02:18:51;;;;;;;5.80;1.55;;;;;;;6.54;55.87;101120.81;7970008;28;20498;-67
2021/10/22 02:22:42;;;;;;;8.20;2.17;;;;;;;6.52;55.94;101116.56;7969237;28;20022;-67
2021/10/22 02:26:34;;;;;;;4.82;1.70;;;;;;;6.51;56.11;101120.13;7970487;28;20275;-67
2021/10/22 02:30:25;;;;;;;8.35;2.25;;;;;;;6.48;56.24;101128.91;7969889;28;20043;-67
2021/10/22 02:34:15;;;;;;;6.28;1.73;;;;;;;6.46;55.93;101127.31;7969943;28;20120;-68
2021/10/22 02:38:06;;;;;;;7.68;1.60;;;;;;;6.42;56.03;101125.75;7970115;28;20099;-66
2021/10/22 02:41:56;;;;;;;8.20;2.10;;;;;;;6.42;55.96;101125.75;7970018;28;20037;-67
2021/10/22 02:45:47;;;;;;;8.93;2.40;;;;;;;6.41;55.81;101129.25;7969875;28;20101;-67
2021/10/22 02:49:37;;;;;;;9.32;1.75;;;;;;;6.36;55.72;101121.63;7969199;28;20049;-67
2021/10/22 02:53:30;;;;;;;7.88;2.33;;;;;;;6.29;56.15;101112.41;7969579;28;20057;-67
2021/10/22 02:57:22;;;;;;;6.55;1.70;;;;;;;6.33;56.04;101116.56;7968903;28;20591;-67
2021/10/22 03:01:12;;;;;;;4.95;1.60;;;;;;;6.31;55.92;101118.38;7969659;28;20608;-68
2021/10/22 03:05:03;;;;;;;9.60;2.05;;;;;;;6.28;55.94;101123.75;7968928;28;20052;-67
2021/10/22 03:08:53;;;;;;;6.78;1.30;;;;;;;6.25;56.05;101120.41;7969510;28;20385;-67
2021/10/22 03:12:44;;;;;;;5.57;1.50;;;;;;;6.24;55.70;101121.34;7969564;28;20091;-68
2021/10/22 03:16:35;;;;;;;9.43;1.48;;;;;;;6.20;56.06;101118.00;7969445;28;20048;-68
2021/10/22 03:20:25;;;;;;;4.05;1.60;;;;;;;6.11;55.69;101118.41;7969575;28;20546;-67
2021/10/22 03:24:16;;;;;;;7.05;1.88;;;;;;;6.15;56.02;101121.72;7968767;28;20044;-67
2021/10/22 03:28:08;;;;;;;11.85;2.03;;;;;;;6.16;55.87;101132.09;7967710;28;20042;-66
2021/10/22 03:31:58;;;;;;;5.07;1.50;;;;;;;6.13;55.67;101120.97;7969108;28;20043;-67
2021/10/22 03:35:49;;;;;;;8.32;1.73;;;;;;;6.11;55.73;101115.81;7974015;28;20035;-67
2021/10/22 03:39:40;;;;;;;11.35;1.55;;;;;;;6.09;55.80;101113.28;7973132;28;20036;-67
2021/10/22 03:43:33;;;;;;;6.30;2.17;;;;;;;6.07;56.06;101106.41;7972685;28;20116;-67
2021/10/22 03:47:23;;;;;;;5.32;1.40;;;;;;;6.02;55.71;101096.19;7973850;28;20036;-66
2021/10/22 03:51:14;;;;;;;7.97;1.77;;;;;;;6.00;55.76;101090.19;7973851;28;20542;-68
2021/10/22 03:55:05;;;;;;;4.55;1.48;;;;;;;5.98;55.80;101096.38;7973760;28;20650;-67
2021/10/22 03:58:56;;;;;;;6.93;1.67;;;;;;;5.96;56.24;101104.28;7974080;28;20048;-67
2021/10/22 04:02:47;;;;;;;6.43;1.55;;;;;;;5.95;55.88;101106.94;7972637;28;20029;-68
2021/10/22 04:06:38;;;;;;;9.50;1.60;;;;;;;5.92;55.98;101096.66;7973908;28;20037;-68
2021/10/22 04:10:29;;;;;;;10.18;1.80;;;;;;;5.90;56.10;101108.91;7973582;28;20087;-67
2021/10/22 04:14:20;;;;;;;6.20;1.92;;;;;;;5.88;55.92;101103.78;7973116;28;20045;-68
2021/10/22 04:18:11;;;;;;;3.80;1.52;;;;;;;5.88;55.92;101092.50;7972947;28;20506;-68
2021/10/22 04:22:02;;;;;;;6.57;2.05;;;;;;;5.80;56.12;101082.41;7972804;28;20029;-67
2021/10/22 04:25:54;;;;;;;9.25;2.08;;;;;;;5.80;56.19;101089.38;7973145;28;20668;-67
2021/10/22 04:29:44;;;;;;;8.93;1.55;;;;;;;5.84;55.74;101086.56;7973160;28;20095;-67
2021/10/22 04:33:35;;;;;;;7.28;2.15;;;;;;;5.82;55.93;101075.34;7973111;28;20090;-67
2021/10/22 04:37:47;;;;;;;5.38;1.98;;;;;;;5.78;56.00;101078.13;7973415;28;20025;-67
2021/10/22 04:41:38;;;;;;;3.92;1.50;;;;;;;5.77;56.07;101084.25;7972566;28;20037;-68
2021/10/22 04:45:30;;;;;;;3.67;1.30;;;;;;;5.80;55.95;101084.16;7972207;28;20626;-67
2021/10/22 04:49:21;;;;;;;4.95;1.40;;;;;;;5.79;56.15;101091.13;7972035;28;20034;-67
2021/10/22 04:53:12;;;;;;;4.57;1.48;;;;;;;5.78;55.83;101094.63;7967734;28;20048;-68
2021/10/22 04:57:02;;;;;;;10.80;2.13;;;;;;;5.75;56.15;101086.94;7971316;28;20042;-67
2021/10/22 05:00:53;;;;;;;4.82;1.92;;;;;;;5.77;56.05;101097.28;7975225;28;20022;-67
2021/10/22 05:04:44;;;;;;;7.93;1.70;;;;;;;5.76;56.19;101103.44;7971723;28;20063;-67
2021/10/22 05:08:34;;;;;;;7.15;2.20;;;;;;;5.75;56.36;101110.41;7971299;28;20061;-67
2021/10/22 05:12:25;;;;;;;7.20;2.30;;;;;;;5.76;55.89;101119.09;7972000;28;20037;-68
2021/10/22 05:16:16;;;;;;;9.00;1.92;;;;;;;5.77;56.19;101118.16;7965522;28;20033;-67
2021/10/22 05:20:09;;;;;;;5.55;1.70;;;;;;;5.77;56.00;101123.38;7968975;28;20626;-67
2021/10/22 05:23:59;;;;;;;11.23;2.35;;;;;;;5.78;56.00;101123.31;7970045;28;20033;-67
2021/10/22 05:27:50;;;;;;;7.95;1.77;;;;;;;5.80;56.01;101133.69;7970700;28;20033;-67
2021/10/22 05:31:41;;;;;;;6.80;1.90;;;;;;;5.78;55.99;101138.94;7970660;28;20033;-67
2021/10/22 05:35:31;;;;;;;8.50;2.15;;;;;;;5.77;56.23;101129.44;7967489;28;20029;-67
2021/10/22 05:39:22;;;;;;;4.65;1.58;;;;;;;5.77;55.96;101134.66;7970583;28;20047;-67
2021/10/22 05:43:13;;;;;;;5.07;1.73;;;;;;;5.77;56.09;101134.66;7969992;28;20029;-67
2021/10/22 05:47:03;;;;;;;6.90;1.70;;;;;;;5.68;56.06;101118.56;7970597;28;20029;-67
2021/10/22 05:50:54;;;;;;;8.27;2.42;;;;;;;5.75;56.09;101125.19;7970179;28;20087;-67
2021/10/22 05:54:45;;;;;;;6.72;1.88;;;;;;;5.73;56.37;101122.66;7969206;28;20083;-67
2021/10/22 05:58:35;;;;;;;6.90;2.20;;;;;;;5.73;55.98;101114.81;7970399;28;20025;-67
2021/10/22 06:02:26;;;;;;;7.63;1.98;;;;;;;5.72;56.26;101110.56;7969926;28;20120;-67
2021/10/22 06:06:17;;;;;;;5.30;1.60;;;;;;;5.69;55.94;101105.44;7968706;28;20033;-67
2021/10/22 06:10:08;;;;;;;5.63;2.00;;;;;;;5.68;55.83;101102.91;7968394;28;20045;-67
2021/10/22 06:13:59;;;;;;;9.35;1.83;;;;;;;5.66;56.04;101110.78;7969014;28;20025;-67
2021/10/22 06:17:51;;;;;;;4.35;1.80;;;;;;;5.67;55.93;101104.69;7969792;28;20040;-67
2021/10/22 06:25:33;;;;;;;6.65;2.17;;;;;;;5.67;56.07;101091.66;7969299;28;20676;-67
2021/10/22 06:29:24;;;;;;;8.40;1.58;;;;;;;5.65;55.94;101099.50;7967944;28;20033;-66
2021/10/22 06:33:14;;;;;;;3.45;1.42;;;;;;;5.68;56.06;101097.72;7969376;28;20037;-67
2021/10/22 06:37:05;;;;;;;6.45;1.70;;;;;;;5.68;56.06;101089.88;7982088;28;20594;-67
2021/10/22 06:40:56;;;;;;;9.55;1.80;;;;;;;5.68;56.04;101098.56;7969485;28;20030;-67
2021/10/22 06:44:47;;;;;;;7.63;1.85;;;;;;;5.64;56.33;101079.56;7967817;28;20115;-67
2021/10/22 06:48:39;;;;;;;9.02;2.30;;;;;;;5.72;56.41;101091.44;7969734;28;20099;-67
2021/10/22 06:52:30;;;;;;;4.13;1.60;;;;;;;5.69;55.98;101083.75;7970280;28;20049;-67
2021/10/22 06:56:21;;;;;;;6.95;1.80;;;;;;;5.76;56.03;101088.66;7969455;28;20740;-67
2021/10/22 07:00:11;;;;;;;4.80;1.70;;;;;;;5.72;56.33;101083.63;7969457;28;20034;-67
2021/10/22 07:04:02;;;;;;;8.07;2.17;;;;;;;5.84;56.35;101090.94;7969004;28;20056;-67
2021/10/22 07:07:53;;;;;;;6.38;1.63;;;;;;;5.78;56.10;101085.97;7972886;28;20131;-67
2021/10/22 07:11:43;;;;;;;11.32;2.83;;;;;;;5.91;56.33;101111.44;7960900;28;20033;-68
2021/10/22 07:15:34;;;;;;;2.67;1.52;;;;;;;5.93;56.00;101103.56;7973800;28;20032;-68
2021/10/22 07:19:24;;;;;;;6.20;1.80;;;;;;;5.94;56.22;101107.84;7973558;28;20508;-67
2021/10/22 07:23:15;;;;;;;4.35;1.63;;;;;;;5.99;56.34;101117.19;7973553;28;20037;-67
2021/10/22 07:27:06;;;;;;;6.28;1.52;;;;;;;6.01;56.32;101122.34;7972572;28;20060;-67
2021/10/22 07:30:56;;;;;;;20.92;2.95;;;;;;;6.06;56.47;101122.97;7972490;28;20040;-68
2021/10/22 07:34:47;;;;;;;4.10;1.70;;;;;;;6.10;56.18;101124.53;7972761;28;20032;-67
2021/10/22 07:38:38;;;;;;;1.55;0.95;;;;;;;6.15;56.47;101117.34;7969077;28;20024;-68
2021/10/22 07:42:29;;;;;;;8.98;2.28;;;;;;;6.21;56.56;101134.53;7970801;28;20061;-67
2021/10/22 07:46:19;;;;;;;6.40;1.75;;;;;;;6.29;56.46;101140.25;7971478;28;20052;-67
2021/10/22 07:50:10;;;;;;;4.43;1.50;;;;;;;6.29;56.48;101119.38;7973040;28;20029;-67
2021/10/22 07:54:01;;;;;;;5.15;1.30;;;;;;;6.37;56.45;101132.94;7973542;28;20402;-66
2021/10/22 07:57:52;;;;;;;6.95;1.58;;;;;;;6.46;56.40;101125.53;7972982;28;20036;-67
2021/10/22 08:01:44;;;;;;;5.40;1.42;;;;;;;6.52;56.35;101132.22;7972297;28;20044;-66
2021/10/22 08:05:35;;;;;;;3.33;1.25;;;;;;;6.64;56.54;101123.84;7971573;28;20570;-67
2021/10/22 08:09:26;;;;;;;4.90;1.65;;;;;;;6.92;56.55;101129.53;7969987;28;20748;-67
2021/10/22 08:13:17;;;;;;;5.72;1.40;;;;;;;7.16;56.23;101139.75;7971014;28;20473;-66
2021/10/22 08:17:11;;;;;;;6.13;2.05;;;;;;;7.44;56.29;101145.34;7969369;28;20814;-68
2021/10/22 08:21:14;;;;;;;5.68;1.60;;;;;;;7.66;56.16;101145.13;7969455;28;20480;-67
2021/10/22 08:25:10;;;;;;;3.67;1.73;;;;;;;7.85;55.87;101140.66;7968569;28;20593;-66
2021/10/22 08:29:02;;;;;;;4.45;1.23;;;;;;;8.03;56.12;101139.75;7970823;28;20065;-67
2021/10/22 08:32:55;;;;;;;7.38;1.58;;;;;;;8.13;56.11;101133.13;7969123;28;20038;-67
2021/10/22 08:36:48;;;;;;;4.57;1.48;;;;;;;8.39;56.12;101158.81;7971068;28;20045;-66
2021/10/22 08:40:39;;;;;;;4.22;1.70;;;;;;;8.50;55.66;101153.00;7971072;28;20022;-66
2021/10/22 08:44:31;;;;;;;2.20;1.35;;;;;;;8.49;55.39;101159.19;7970848;28;20040;-67
2021/10/22 08:48:22;;;;;;;7.38;1.30;;;;;;;8.47;55.48;101168.88;7970332;28;20060;-66
2021/10/22 08:52:13;;;;;;;4.28;1.40;;;;;;;8.43;55.54;101164.72;7969589;28;20138;-66
2021/10/22 08:56:05;;;;;;;7.78;1.50;;;;;;;8.44;55.49;101170.81;7970622;28;20699;-66
2021/10/22 08:59:58;;;;;;;3.22;1.40;;;;;;;8.43;55.95;101179.56;7971404;28;20111;-66
2021/10/22 09:03:49;;;;;;;6.95;1.30;;;;;;;8.41;55.50;101177.06;7971101;28;20026;-66
2021/10/22 09:07:42;;;;;;;10.63;2.15;;;;;;;8.38;55.38;101180.66;7970956;28;20036;-67
2021/10/22 09:11:34;;;;;;;5.55;1.50;;;;;;;8.37;55.66;101181.63;7969115;28;20040;-67
2021/10/22 09:15:36;;;;;;;5.20;1.27;;;;;;;8.38;55.24;101171.97;7970813;28;20029;-67
2021/10/22 09:19:35;;;;;;;5.68;1.30;;;;;;;8.43;55.73;101176.97;7969186;28;20033;-66
2021/10/22 09:23:29;;;;;;;3.50;1.20;;;;;;;8.47;55.70;101181.09;7970145;28;20057;-66
2021/10/22 09:27:34;;;;;;;4.88;1.20;;;;;;;8.44;55.50;101174.28;7969883;28;20150;-66
2021/10/22 09:31:25;;;;;;;5.47;1.45;;;;;;;8.43;55.64;101182.19;7969703;28;20044;-66
2021/10/22 09:35:43;;;;;;;4.40;1.27;;;;;;;8.44;55.66;101178.66;7970228;28;20041;-67
2021/10/22 09:39:36;;;;;;;8.30;1.57;;;;;;;8.46;55.81;101175.03;7964300;28;20034;-67
2021/10/22 09:43:35;;;;;;;3.65;1.23;;;;;;;8.49;55.73;101174.03;7969536;28;20033;-67
2021/10/22 09:47:26;;;;;;;7.22;1.55;;;;;;;8.51;55.90;101166.94;7969270;28;20143;-66
2021/10/22 09:51:35;;;;;;;6.68;1.60;;;;;;;8.52;55.68;101171.25;7968513;28;20164;-67
2021/10/22 09:55:29;;;;;;;2.78;1.35;;;;;;;8.56;56.41;101176.25;7967779;28;20061;-66
2021/10/22 09:59:25;;;;;;;3.70;1.50;;;;;;;8.60;55.73;101164.69;7968984;28;20040;-67
2021/10/22 10:03:16;;;;;;;3.38;1.35;;;;;;;8.62;55.98;101173.31;7967926;28;20117;-67
2021/10/22 10:07:07;;;;;;;6.45;2.35;;;;;;;8.68;55.76;101172.97;7967582;28;20025;-67
2021/10/22 10:10:57;;;;;;;6.00;1.63;;;;;;;8.74;55.69;101184.91;7964676;28;20055;-68
2021/10/22 10:14:48;;;;;;;2.38;1.38;;;;;;;8.76;55.26;101167.31;7967570;28;20029;-67
2021/10/22 10:18:53;;;;;;;6.38;1.33;;;;;;;8.82;55.87;101177.47;7968156;28;20034;-67
2021/10/22 10:22:47;;;;;;;6.32;1.42;;;;;;;8.83;55.84;101176.56;7966952;28;20486;-67
2021/10/22 10:26:38;;;;;;;4.45;1.08;;;;;;;8.85;55.65;101174.69;7967760;28;20251;-67
2021/10/22 10:30:32;;;;;;;4.63;1.13;;;;;;;8.94;55.59;101186.44;7965839;28;20047;-68
2021/10/22 10:34:42;;;;;;;3.85;1.40;;;;;;;8.97;55.74;101186.28;7965294;28;20034;-67
2021/10/22 10:38:46;;;;;;;9.57;1.67;;;;;;;9.05;55.70;101194.56;7966369;28;20033;-67
2021/10/22 10:42:46;;;;;;;5.22;1.30;;;;;;;9.17;55.79;101191.28;7969243;28;20044;-67
2021/10/22 10:46:36;;;;;;;3.90;1.23;;;;;;;9.25;55.54;101189.91;7970730;28;20034;-67
2021/10/22 10:51:04;;;;;;;8.63;1.58;;;;;;;9.36;55.51;101196.38;7972994;28;20033;-67
2021/10/22 10:55:16;;;;;;;4.50;1.38;;;;;;;9.45;55.38;101203.75;7972568;28;20028;-67
2021/10/22 10:59:07;;;;;;;3.30;1.40;;;;;;;9.56;55.46;101211.84;7974842;28;20045;-67
2021/10/22 11:03:05;;;;;;;5.68;1.67;;;;;;;9.63;55.36;101186.94;7973035;28;20033;-67
2021/10/22 11:06:56;;;;;;;4.22;1.33;;;;;;;9.65;55.35;101185.94;7969563;28;20125;-67
2021/10/22 11:14:59;;;;;;;5.10;1.27;;;;;;;9.70;55.26;101191.75;7973424;28;20049;-67
2021/10/22 11:19:05;;;;;;;3.22;1.45;;;;;;;9.66;54.96;101173.66;7973389;28;20040;-67
2021/10/22 11:22:56;;;;;;;3.20;1.15;;;;;;;9.68;55.00;101169.19;7972067;28;20033;-67
2021/10/22 11:27:02;;;;;;;8.52;1.95;;;;;;;9.76;55.01;101191.41;7973347;28;20367;-67
2021/10/22 11:30:54;;;;;;;1.40;1.10;;;;;;;9.88;55.02;101199.50;7971084;28;20029;-68
2021/10/22 11:35:01;;;;;;;2.95;1.35;;;;;;;9.94;54.79;101212.28;7972981;28;20029;-68
2021/10/22 11:38:52;;;;;;;4.35;1.55;;;;;;;9.96;54.34;101216.50;7974899;28;20029;-67
2021/10/22 11:42:43;;;;;;;8.30;1.38;;;;;;;9.97;54.62;101207.69;7970458;28;20033;-67
2021/10/22 11:46:47;;;;;;;4.20;1.15;;;;;;;10.00;54.47;101207.50;7972876;28;20674;-67
2021/10/22 11:50:37;;;;;;;1.60;1.08;;;;;;;10.06;54.63;101219.44;7972321;28;20044;-67
2021/10/22 11:54:36;;;;;;;7.20;1.77;;;;;;;10.09;54.47;101214.00;7971104;28;20076;-67
2021/10/22 11:58:35;;;;;;;6.60;1.25;;;;;;;10.13;54.23;101215.53;7972813;28;20033;-67
2021/10/22 12:02:31;;;;;;;1.48;0.93;;;;;;;10.21;54.43;101223.78;7969346;28;20045;-67
2021/10/22 12:06:23;;;;;;;2.53;0.90;;;;;;;10.25;54.40;101236.66;7971261;28;20163;-68
2021/10/22 12:10:15;;;;;;;3.58;1.25;;;;;;;10.25;54.21;101220.91;7969953;28;20569;-68
2021/10/22 12:14:14;;;;;;;3.15;1.50;;;;;;;10.21;54.08;101219.38;7971712;28;20305;-67
2021/10/22 12:18:04;;;;;;;;;;;;;;;10.18;54.62;101230.06;7971671;28;20131;-67
2021/10/22 12:21:56;;;;;;;3.15;1.20;;;;;;;10.27;54.32;101235.72;7970551;28;20485;-68
2021/10/22 12:25:47;;;;;;;5.15;1.40;;;;;;;10.29;54.15;101234.69;7970744;28;20065;-67
2021/10/22 12:29:54;;;;;;;2.53;0.90;;;;;;;10.30;54.16;101238.16;7971443;28;20045;-67
2021/10/22 12:34:07;;;;;;;4.18;1.60;;;;;;;10.32;53.91;101236.31;7970901;28;20061;-67
2021/10/22 12:38:02;;;;;;;3.80;1.00;;;;;;;10.33;53.90;101245.84;7970315;28;20025;-67
2021/10/22 12:41:54;;;;;;;4.28;1.50;;;;;;;10.25;53.93;101236.66;7966295;28;20163;-67
2021/10/22 12:45:52;;;;;;;6.80;1.73;;;;;;;10.33;53.93;101243.22;7969347;28;20037;-67
2021/10/22 12:49:42;;;;;;;4.35;1.52;;;;;;;10.34;54.01;101244.91;7966569;28;20040;-68
2021/10/22 12:53:44;;;;;;;3.95;1.13;;;;;;;10.35;53.81;101249.25;7969449;28;20034;-67
2021/10/22 12:57:35;;;;;;;3.20;1.30;;;;;;;10.34;53.79;101248.38;7962241;28;20041;-67
2021/10/22 13:01:35;;;;;;;3.92;1.10;;;;;;;10.35;53.73;101262.38;7969960;28;20091;-68
2021/10/22 13:05:26;;;;;;;8.10;1.17;;;;;;;10.36;53.75;101258.81;7969871;28;20033;-67
2021/10/22 13:13:49;;;;;;;4.15;1.45;;;;;;;10.32;53.77;101250.28;7967963;28;20048;-67
2021/10/22 13:21:49;;;;;;;6.32;1.85;;;;;;;10.39;53.79;101254.22;7968443;28;20037;-67
2021/10/22 13:25:44;;;;;;;1.85;1.10;;;;;;;10.41;53.92;101241.81;7967976;28;20029;-67
2021/10/22 13:29:35;;;;;;;3.88;0.98;;;;;;;10.44;53.71;101246.06;7969791;28;20120;-67
2021/10/22 13:33:29;;;;;;;2.15;1.05;;;;;;;10.46;53.89;101249.44;7969021;28;20033;-68
2021/10/22 13:37:20;;;;;;;2.75;1.23;;;;;;;10.49;53.74;101257.13;7969503;28;20037;-68
2021/10/22 13:41:10;;;;;;;5.55;1.50;;;;;;;10.50;53.52;101254.47;7968282;28;20112;-67
2021/10/22 13:45:03;;;;;;;7.90;1.30;;;;;;;10.51;53.73;101261.41;7968830;28;20047;-67
2021/10/22 13:48:53;;;;;;;4.40;1.25;;;;;;;10.55;53.67;101256.81;7967726;28;20033;-68
2021/10/22 13:52:44;;;;;;;3.85;1.20;;;;;;;10.58;53.70;101259.25;7968687;28;20025;-68
2021/10/22 13:56:35;;;;;;;2.95;1.10;;;;;;;10.60;53.60;101271.38;7969229;28;20135;-68
2021/10/22 14:00:26;;;;;;;2.08;1.13;;;;;;;10.63;53.71;101278.22;7969377;28;20037;-68
2021/10/22 14:04:16;;;;;;;4.88;1.10;;;;;;;10.64;53.46;101280.75;7968510;28;20155;-68
2021/10/22 14:08:07;;;;;;;4.82;1.15;;;;;;;10.66;53.41;101278.03;7968934;28;20071;-68
2021/10/22 14:12:05;;;;;;;4.43;1.10;;;;;;;10.59;53.29;101267.03;7966448;28;20035;-68
2021/10/22 14:16:27;;;;;;;3.60;1.20;;;;;;;10.64;53.70;101274.66;7967789;28;20026;-67
2021/10/22 14:23:15;;;;;;;6.03;1.20;;;;;;;10.59;53.21;101263.56;7967704;28;20087;-67
2021/10/22 14:24:41;;;;;;;2.80;1.30;;;;;;;10.57;53.34;101268.91;7968132;28;20052;-68
2021/10/22 14:32:41;;;;;;;16.52;1.75;;;;;;;10.51;53.38;101299.97;7966194;28;20464;-68
2021/10/22 14:36:33;;;;;;;4.80;1.23;;;;;;;10.46;53.23;101291.47;7968386;28;20536;-67
2021/10/22 14:40:23;;;;;;;5.05;1.13;;;;;;;10.40;53.18;101291.84;7967262;28;20120;-68
2021/10/22 14:44:23;;;;;;;2.58;0.93;;;;;;;10.40;53.34;101305.81;7967470;28;20025;-67
2021/10/22 14:48:18;;;;;;;2.35;1.20;;;;;;;10.39;53.16;101309.38;7966131;28;20037;-68
2021/10/22 14:56:22;;;;;;;3.78;1.13;;;;;;;10.34;53.39;101313.19;7948966;28;20137;-67
2021/10/22 15:00:13;;;;;;;3.35;1.20;;;;;;;10.34;53.34;101326.31;7967084;28;20025;-68
2021/10/22 15:04:07;;;;;;;3.67;1.00;;;;;;;10.29;53.24;101310.84;7967123;28;20577;-69
2021/10/22 15:07:57;;;;;;;3.75;1.13;;;;;;;10.33;53.41;101327.25;7967366;28;20064;-67
2021/10/22 15:11:48;;;;;;;4.15;1.10;;;;;;;10.32;53.50;101341.34;7965544;28;20036;-67
2021/10/22 15:15:39;;;;;;;3.25;1.20;;;;;;;10.32;53.48;101339.56;7967875;28;20036;-68
2021/10/22 15:19:29;;;;;;;3.80;0.98;;;;;;;10.31;53.59;101348.38;7967362;28;20171;-67
2021/10/22 15:23:22;;;;;;;2.75;1.10;;;;;;;10.32;53.56;101350.06;7967362;28;20677;-68
2021/10/22 15:27:13;;;;;;;2.45;1.02;;;;;;;10.33;53.70;101353.50;7964292;28;20132;-68
2021/10/22 15:31:04;;;;;;;2.58;1.10;;;;;;;10.36;53.55;101363.88;7973298;28;20041;-68
2021/10/22 15:34:54;;;;;;;3.70;1.15;;;;;;;10.36;53.66;101358.63;7972594;28;20033;-68
2021/10/22 15:38:46;;;;;;;5.28;1.13;;;;;;;10.36;53.58;101356.84;7974161;28;20051;-67
2021/10/22 15:42:37;;;;;;;2.20;1.00;;;;;;;10.38;53.52;101367.22;7972519;28;20029;-67
2021/10/22 15:46:27;;;;;;;1.75;0.90;;;;;;;10.36;53.39;101362.09;7970913;28;20029;-67
2021/10/22 15:50:18;;;;;;;3.53;1.60;;;;;;;10.34;53.59;101360.47;7971782;28;20041;-68
2021/10/22 15:54:09;;;;;;;4.05;1.10;;;;;;;10.31;53.39;101373.78;7971711;28;20033;-67
2021/10/22 15:57:59;;;;;;;3.47;0.85;;;;;;;10.28;53.44;101374.78;7970056;28;20029;-68
2021/10/22 16:01:50;;;;;;;3.28;0.95;;;;;;;10.25;53.66;101391.56;7969539;28;20743;-68
2021/10/22 16:05:46;;;;;;;4.28;1.20;;;;;;;10.24;53.44;101392.50;7971959;28;20490;-67
2021/10/22 16:09:48;;;;;;;3.15;0.80;;;;;;;10.23;53.52;101414.44;7971691;28;20108;-67
2021/10/22 16:14:38;;;;;;;3.38;1.17;;;;;;;10.18;53.59;101413.84;7970344;28;20044;-67
2021/10/22 16:17:53;;;;;;;2.33;1.08;;;;;;;10.17;53.70;101427.91;7964402;28;20045;-67
2021/10/22 16:21:44;;;;;;;2.13;0.82;;;;;;;10.18;53.59;101426.97;7969812;28;20041;-67
2021/10/22 16:25:34;;;;;;;1.65;0.98;;;;;;;10.18;53.78;101439.25;7968215;28;20037;-67
2021/10/22 16:29:25;;;;;;;3.75;1.25;;;;;;;10.17;53.81;101450.69;7971127;28;20388;-67
2021/10/22 16:35:40;;;;;;;3.63;0.80;;;;;;;10.14;53.96;101456.97;7971304;28;20033;-67
2021/10/22 16:37:33;;;;;;;3.33;0.95;;;;;;;10.14;54.13;101474.50;7970003;28;20615;-67
2021/10/22 16:41:27;;;;;;;4.35;1.38;;;;;;;10.10;53.59;101493.97;7966089;28;20056;-67
2021/10/22 16:45:18;;;;;;;3.50;0.95;;;;;;;10.03;54.41;101503.94;7966669;28;20043;-67
2021/10/22 16:49:08;;;;;;;4.78;1.42;;;;;;;10.00;54.41;101509.34;7966164;28;20042;-68
2021/10/22 16:53:00;;;;;;;2.40;1.00;;;;;;;9.98;54.38;101511.22;7969789;28;20438;-69
2021/10/22 16:56:50;;;;;;;1.92;0.90;;;;;;;9.96;54.44;101515.69;7969695;28;20028;-68
2021/10/22 17:00:41;;;;;;;1.90;0.80;;;;;;;9.89;54.49;101532.72;7971550;28;20033;-68
2021/10/22 17:04:34;;;;;;;1.52;0.80;;;;;;;9.81;54.50;101520.91;7969337;28;20025;-69
2021/10/22 17:08:24;;;;;;;1.13;0.70;;;;;;;9.86;54.35;101546.00;7969535;28;20041;-70
2021/10/22 17:12:19;;;;;;;5.03;0.98;;;;;;;9.81;54.49;101542.75;7970038;28;20033;-69
2021/10/22 17:16:10;;;;;;;1.75;0.60;;;;;;;9.76;54.49;101548.25;7971064;28;20041;-68
2021/10/22 17:20:00;;;;;;;2.72;0.70;;;;;;;9.67;54.54;101540.00;7970717;28;20124;-68
2021/10/22 17:23:52;;;;;;;1.75;1.05;;;;;;;9.70;54.67;101566.09;7968208;28;20655;-67
2021/10/22 17:27:42;;;;;;;3.13;1.10;;;;;;;9.67;54.64;101571.47;7967942;28;20682;-68
2021/10/22 17:31:35;;;;;;;1.60;0.85;;;;;;;9.63;54.83;101577.81;7969213;28;20034;-68
2021/10/22 17:35:26;;;;;;;3.85;1.20;;;;;;;9.61;54.72;101588.41;7969364;28;20040;-67
2021/10/22 17:39:16;;;;;;;2.30;1.05;;;;;;;9.57;54.77;101591.25;7968684;28;20033;-68
2021/10/22 17:43:08;;;;;;;1.23;0.90;;;;;;;9.55;54.83;101593.94;7969473;28;20107;-68
2021/10/22 17:46:59;;;;;;;1.15;0.90;;;;;;;9.54;54.94;101602.72;7969006;28;20037;-68
2021/10/22 17:50:50;;;;;;;1.30;0.80;;;;;;;9.53;55.07;101616.78;7967084;28;20052;-67
2021/10/22 17:54:41;;;;;;;1.00;0.68;;;;;;;9.52;55.05;101615.09;7967996;28;20033;-68
2021/10/22 17:58:33;;;;;;;1.20;0.63;;;;;;;9.50;55.15;101622.16;7967842;28;20026;-69
2021/10/22 18:02:23;;;;;;;5.07;0.80;;;;;;;9.43;55.21;101599.78;7966129;28;20037;-68
2021/10/22 18:06:14;;;;;;;1.35;0.88;;;;;;;9.53;54.80;101627.28;7966658;28;20064;-67
2021/10/22 18:10:05;;;;;;;2.70;1.30;;;;;;;9.52;55.18;101635.22;7969067;28;20033;-68
2021/10/22 18:13:57;;;;;;;0.80;0.70;;;;;;;9.50;55.16;101632.66;7967538;28;20056;-70
2021/10/22 18:17:48;;;;;;;2.22;0.60;;;;;;;9.52;55.18;101645.69;7968265;28;20033;-68
2021/10/22 18:21:39;;;;;;;3.28;0.90;;;;;;;9.50;55.23;101656.25;7968385;28;20413;-67
2021/10/22 18:25:30;;;;;;;2.30;0.90;;;;;;;9.50;54.90;101661.50;7965748;28;20026;-67
2021/10/22 18:29:28;;;;;;;1.08;0.70;;;;;;;9.48;55.24;101670.38;7967668;28;20045;-66
2021/10/22 18:33:20;;;;;;;1.85;1.00;;;;;;;9.44;55.28;101661.81;7967843;28;20091;-68
2021/10/22 18:37:12;;;;;;;1.60;0.88;;;;;;;9.48;55.15;101673.84;7969793;28;20041;-69
2021/10/22 18:41:04;;;;;;;2.60;0.82;;;;;;;9.47;55.18;101672.16;7969940;28;20025;-67